<?xml version="1.0" encoding="UTF-8" standalone="no" ?>
<gpx xmlns="http://www.topografix.com/GPX/1/1" xmlns:xsi="http://www.w3.org/2001/XMLSchema-instance" xsi:schemaLocation="http://www.topografix.com/GPX/1/1 http://www.topografix.com/GPX/1/1/gpx.xsd" version="1.1" creator="VisuGPX - https://www.visugpx.com">
  <metadata>
    <name>Trail Cuvery-PlansHôtonnes</name>
  </metadata>
  <trk>
    <name><![CDATA[Trail Cuvery-PlansHôtonnes]]></name>
    <extensions>
      <line xmlns="http://www.topografix.com/GPX/gpx_style/0/2">
        <color>0000FF</color>
        <width>4</width>
      </line>
    </extensions>
    <trkseg>
      <trkpt lat="46.1112" lon="5.73549">
        <ele>1168.5</ele>
        <time>2022-04-11T06:10:23.900Z</time>
      </trkpt>
      <trkpt lat="46.11111" lon="5.73552">
        <ele>1179.587672</ele>
        <time>2022-04-11T06:10:44.348Z</time>
      </trkpt>
      <trkpt lat="46.11107" lon="5.73553">
        <ele>1179.734679</ele>
        <time>2022-04-11T06:10:46.382Z</time>
      </trkpt>
      <trkpt lat="46.11075" lon="5.73553">
        <ele>1167.6</ele>
      </trkpt>
      <trkpt lat="46.11047" lon="5.73548">
        <ele>1167.1</ele>
        <time>2022-04-11T06:11:14.153Z</time>
      </trkpt>
      <trkpt lat="46.10993" lon="5.73547">
        <ele>1183.554822</ele>
        <time>2022-04-11T06:11:39.860Z</time>
      </trkpt>
      <trkpt lat="46.10909" lon="5.73502">
        <ele>1187.420761</ele>
        <time>2022-04-11T06:12:21.983Z</time>
      </trkpt>
      <trkpt lat="46.1085" lon="5.73475">
        <ele>1191.092006</ele>
        <time>2022-04-11T06:12:54.862Z</time>
      </trkpt>
      <trkpt lat="46.1076" lon="5.7345">
        <ele>1196.604934</ele>
        <time>2022-04-11T06:13:44.809Z</time>
      </trkpt>
      <trkpt lat="46.10744" lon="5.73456">
        <ele>1197.785286</ele>
        <time>2022-04-11T06:13:54.534Z</time>
      </trkpt>
      <trkpt lat="46.10739" lon="5.73464">
        <ele>1198.326994</ele>
        <time>2022-04-11T06:14:00.194Z</time>
      </trkpt>
      <trkpt lat="46.10734" lon="5.73532">
        <ele>1201.778867</ele>
        <time>2022-04-11T06:14:26.133Z</time>
      </trkpt>
      <trkpt lat="46.10737" lon="5.73549">
        <ele>1202.619413</ele>
        <time>2022-04-11T06:14:32.929Z</time>
      </trkpt>
      <trkpt lat="46.10778" lon="5.73595">
        <ele>1206.355935</ele>
        <time>2022-04-11T06:15:03.761Z</time>
      </trkpt>
      <trkpt lat="46.10783" lon="5.73632">
        <ele>1208.281725</ele>
        <time>2022-04-11T06:15:19.294Z</time>
      </trkpt>
      <trkpt lat="46.10756" lon="5.73822">
        <ele>1214.513195</ele>
        <time>2022-04-11T06:16:37.960Z</time>
      </trkpt>
      <trkpt lat="46.10739" lon="5.73834">
        <ele>1215.342935</ele>
        <time>2022-04-11T06:16:47.016Z</time>
      </trkpt>
      <trkpt lat="46.10659" lon="5.73864">
        <ele>1217.815783</ele>
        <time>2022-04-11T06:17:24.363Z</time>
      </trkpt>
      <trkpt lat="46.10576" lon="5.73881">
        <ele>1219.363675</ele>
        <time>2022-04-11T06:18:00.925Z</time>
      </trkpt>
      <trkpt lat="46.10506" lon="5.73943">
        <ele>1221.052967</ele>
        <time>2022-04-11T06:18:36.422Z</time>
      </trkpt>
      <trkpt lat="46.10433" lon="5.73918">
        <ele>1222.855166</ele>
        <time>2022-04-11T06:19:09.856Z</time>
      </trkpt>
      <trkpt lat="46.10345" lon="5.73867">
        <ele>1225.48755</ele>
        <time>2022-04-11T06:19:53.719Z</time>
      </trkpt>
      <trkpt lat="46.10221" lon="5.73819">
        <ele>1230.63293</ele>
        <time>2022-04-11T06:20:56.559Z</time>
      </trkpt>
      <trkpt lat="46.10194" lon="5.73817">
        <ele>1231.727597</ele>
        <time>2022-04-11T06:21:09.948Z</time>
      </trkpt>
      <trkpt lat="46.10174" lon="5.73806">
        <ele>1232.301582</ele>
        <time>2022-04-11T06:21:20.166Z</time>
      </trkpt>
      <trkpt lat="46.10137" lon="5.73763">
        <ele>1233.561028</ele>
        <time>2022-04-11T06:21:42.465Z</time>
      </trkpt>
      <trkpt lat="46.10064" lon="5.73727">
        <ele>1235.628226</ele>
        <time>2022-04-11T06:22:17.806Z</time>
      </trkpt>
      <trkpt lat="46.09917" lon="5.73661">
        <ele>1237.235917</ele>
        <time>2022-04-11T06:23:22.882Z</time>
      </trkpt>
      <trkpt lat="46.09869" lon="5.73628">
        <ele>1237.545387</ele>
        <time>2022-04-11T06:23:44.725Z</time>
      </trkpt>
      <trkpt lat="46.09809" lon="5.73624">
        <ele>1237.610425</ele>
        <time>2022-04-11T06:24:09.211Z</time>
      </trkpt>
      <trkpt lat="46.09756" lon="5.73611">
        <ele>1237.630822</ele>
        <time>2022-04-11T06:24:31.010Z</time>
      </trkpt>
      <trkpt lat="46.0971" lon="5.73592">
        <ele>1237.649131</ele>
        <time>2022-04-11T06:24:50.650Z</time>
      </trkpt>
      <trkpt lat="46.09676" lon="5.73569">
        <ele>1237.968244</ele>
        <time>2022-04-11T06:25:06.604Z</time>
      </trkpt>
      <trkpt lat="46.09634" lon="5.73551">
        <ele>1239.082508</ele>
        <time>2022-04-11T06:25:25.883Z</time>
      </trkpt>
      <trkpt lat="46.09587" lon="5.73505">
        <ele>1240.503856</ele>
        <time>2022-04-11T06:25:51.248Z</time>
      </trkpt>
      <trkpt lat="46.09519" lon="5.7346">
        <ele>1242.502174</ele>
        <time>2022-04-11T06:26:26.870Z</time>
      </trkpt>
      <trkpt lat="46.09498" lon="5.73455">
        <ele>1243.334059</ele>
        <time>2022-04-11T06:26:37.390Z</time>
      </trkpt>
      <trkpt lat="46.09409" lon="5.734">
        <ele>1247.089886</ele>
        <time>2022-04-11T06:27:24.854Z</time>
      </trkpt>
      <trkpt lat="46.09368" lon="5.73389">
        <ele>1248.680206</ele>
        <time>2022-04-11T06:27:44.238Z</time>
      </trkpt>
      <trkpt lat="46.09257" lon="5.73335">
        <ele>1251.951741</ele>
        <time>2022-04-11T06:28:38.423Z</time>
      </trkpt>
      <trkpt lat="46.09103" lon="5.73273">
        <ele>1254.923194</ele>
        <time>2022-04-11T06:29:49.505Z</time>
      </trkpt>
      <trkpt lat="46.08813" lon="5.732">
        <ele>1257.059546</ele>
        <time>2022-04-11T06:31:51.956Z</time>
      </trkpt>
      <trkpt lat="46.08772" lon="5.73192">
        <ele>1257.652338</ele>
        <time>2022-04-11T06:32:09.624Z</time>
      </trkpt>
      <trkpt lat="46.08585" lon="5.73148">
        <ele>1260.290701</ele>
        <time>2022-04-11T06:33:33.036Z</time>
      </trkpt>
      <trkpt lat="46.0851" lon="5.73147">
        <ele>1261.287901</ele>
        <time>2022-04-11T06:34:05.444Z</time>
      </trkpt>
      <trkpt lat="46.0831" lon="5.73155">
        <ele>1262.059349</ele>
        <time>2022-04-11T06:35:29.687Z</time>
      </trkpt>
      <trkpt lat="46.08226" lon="5.73148">
        <ele>1259.462918</ele>
        <time>2022-04-11T06:36:02.512Z</time>
      </trkpt>
      <trkpt lat="46.08098" lon="5.73161">
        <ele>1254.294802</ele>
        <time>2022-04-11T06:36:49.308Z</time>
      </trkpt>
      <trkpt lat="46.08078" lon="5.73155">
        <ele>1253.052691</ele>
        <time>2022-04-11T06:36:56.777Z</time>
      </trkpt>
      <trkpt lat="46.07992" lon="5.73114">
        <ele>1247.756833</ele>
        <time>2022-04-11T06:37:28.730Z</time>
      </trkpt>
      <trkpt lat="46.07887" lon="5.73049">
        <ele>1242.339007</ele>
        <time>2022-04-11T06:38:10.353Z</time>
      </trkpt>
      <trkpt lat="46.07877" lon="5.73034">
        <ele>1241.795462</ele>
        <time>2022-04-11T06:38:15.671Z</time>
      </trkpt>
      <trkpt lat="46.07845" lon="5.72934">
        <ele>1238.891918</ele>
        <time>2022-04-11T06:38:44.484Z</time>
      </trkpt>
      <trkpt lat="46.07816" lon="5.729">
        <ele>1238.043803</ele>
        <time>2022-04-11T06:38:59.054Z</time>
      </trkpt>
      <trkpt lat="46.07763" lon="5.72862">
        <ele>1238.621486</ele>
        <time>2022-04-11T06:39:23.087Z</time>
      </trkpt>
      <trkpt lat="46.07676" lon="5.72837">
        <ele>1239.487763</ele>
        <time>2022-04-11T06:40:02.237Z</time>
      </trkpt>
      <trkpt lat="46.0766" lon="5.72837">
        <ele>1239.642273</ele>
        <time>2022-04-11T06:40:09.445Z</time>
      </trkpt>
      <trkpt lat="46.07651" lon="5.72795">
        <ele>1241.650191</ele>
        <time>2022-04-11T06:40:26.503Z</time>
      </trkpt>
      <trkpt lat="46.07636" lon="5.7278">
        <ele>1242.991263</ele>
        <time>2022-04-11T06:40:37.447Z</time>
      </trkpt>
      <trkpt lat="46.07598" lon="5.72775">
        <ele>1245.734748</ele>
        <time>2022-04-11T06:41:00.828Z</time>
      </trkpt>
      <trkpt lat="46.07535" lon="5.72806">
        <ele>1250.691724</ele>
        <time>2022-04-11T06:41:49.040Z</time>
      </trkpt>
      <trkpt lat="46.07357" lon="5.7283">
        <ele>1269.067582</ele>
        <time>2022-04-11T06:44:15.922Z</time>
      </trkpt>
      <trkpt lat="46.07323" lon="5.72841">
        <ele>1272.817636</ele>
        <time>2022-04-11T06:44:45.384Z</time>
      </trkpt>
      <trkpt lat="46.07264" lon="5.72833">
        <ele>1277.395058</ele>
        <time>2022-04-11T06:45:30.226Z</time>
      </trkpt>
      <trkpt lat="46.07247" lon="5.72839">
        <ele>1278.734684</ele>
        <time>2022-04-11T06:45:42.803Z</time>
      </trkpt>
      <trkpt lat="46.07219" lon="5.72918">
        <ele>1283.532364</ele>
        <time>2022-04-11T06:46:23.181Z</time>
      </trkpt>
      <trkpt lat="46.07187" lon="5.7295">
        <ele>1286.50553</ele>
        <time>2022-04-11T06:46:46.229Z</time>
      </trkpt>
      <trkpt lat="46.07161" lon="5.72954">
        <ele>1287.303403</ele>
        <time>2022-04-11T06:47:01.171Z</time>
      </trkpt>
      <trkpt lat="46.07148" lon="5.72967">
        <ele>1287.791213</ele>
        <time>2022-04-11T06:47:10.216Z</time>
      </trkpt>
      <trkpt lat="46.07139" lon="5.72986">
        <ele>1288.266214</ele>
        <time>2022-04-11T06:47:18.901Z</time>
      </trkpt>
      <trkpt lat="46.07138" lon="5.72997">
        <ele>1288.510209</ele>
        <time>2022-04-11T06:47:23.229Z</time>
      </trkpt>
      <trkpt lat="46.07124" lon="5.73012">
        <ele>1289.058698</ele>
        <time>2022-04-11T06:47:32.843Z</time>
      </trkpt>
      <trkpt lat="46.07114" lon="5.73047">
        <ele>1289.855536</ele>
        <time>2022-04-11T06:47:46.685Z</time>
      </trkpt>
      <trkpt lat="46.07087" lon="5.7307">
        <ele>1290.793815</ele>
        <time>2022-04-11T06:48:02.478Z</time>
      </trkpt>
      <trkpt lat="46.07068" lon="5.731">
        <ele>1291.676247</ele>
        <time>2022-04-11T06:48:17.267Z</time>
      </trkpt>
      <trkpt lat="46.07054" lon="5.731">
        <ele>1292.182775</ele>
        <time>2022-04-11T06:48:24.284Z</time>
      </trkpt>
      <trkpt lat="46.07031" lon="5.73084">
        <ele>1293.488413</ele>
        <time>2022-04-11T06:48:37.864Z</time>
      </trkpt>
      <trkpt lat="46.06945" lon="5.73115">
        <ele>1297.979207</ele>
        <time>2022-04-11T06:49:29.555Z</time>
      </trkpt>
      <trkpt lat="46.06901" lon="5.73075">
        <ele>1300.622029</ele>
        <time>2022-04-11T06:50:02.537Z</time>
      </trkpt>
      <trkpt lat="46.06886" lon="5.73045">
        <ele>1302.488481</ele>
        <time>2022-04-11T06:50:21.626Z</time>
      </trkpt>
      <trkpt lat="46.06785" lon="5.72951">
        <ele>1312.659666</ele>
        <time>2022-04-11T06:51:48.423Z</time>
      </trkpt>
      <trkpt lat="46.06766" lon="5.72941">
        <ele>1314.348081</ele>
        <time>2022-04-11T06:52:04.406Z</time>
      </trkpt>
      <trkpt lat="46.06732" lon="5.72909">
        <ele>1317.267964</ele>
        <time>2022-04-11T06:52:31.674Z</time>
      </trkpt>
      <trkpt lat="46.06697" lon="5.72898">
        <ele>1319.233834</ele>
        <time>2022-04-11T06:52:54.757Z</time>
      </trkpt>
      <trkpt lat="46.06649" lon="5.72898">
        <ele>1321.866804</ele>
        <time>2022-04-11T06:53:23.869Z</time>
      </trkpt>
      <trkpt lat="46.06613" lon="5.72914">
        <ele>1323.929024</ele>
        <time>2022-04-11T06:53:45.928Z</time>
      </trkpt>
      <trkpt lat="46.06578" lon="5.729">
        <ele>1325.873423</ele>
        <time>2022-04-11T06:54:05.685Z</time>
      </trkpt>
      <trkpt lat="46.06545" lon="5.72922">
        <ele>1327.375174</ele>
        <time>2022-04-11T06:54:26.116Z</time>
      </trkpt>
      <trkpt lat="46.06516" lon="5.72917">
        <ele>1328.485307</ele>
        <time>2022-04-11T06:54:42.009Z</time>
      </trkpt>
      <trkpt lat="46.06475" lon="5.72922">
        <ele>1330.090265</ele>
        <time>2022-04-11T06:55:04.765Z</time>
      </trkpt>
      <trkpt lat="46.0637" lon="5.72877">
        <ele>1334.561296</ele>
        <time>2022-04-11T06:56:07.790Z</time>
      </trkpt>
      <trkpt lat="46.06332" lon="5.72885">
        <ele>1336.309626</ele>
        <time>2022-04-11T06:56:30.516Z</time>
      </trkpt>
      <trkpt lat="46.06254" lon="5.72854">
        <ele>1340.032097</ele>
        <time>2022-04-11T06:57:18.536Z</time>
      </trkpt>
      <trkpt lat="46.06167" lon="5.72841">
        <ele>1342.268976</ele>
        <time>2022-04-11T06:58:07.827Z</time>
      </trkpt>
      <trkpt lat="46.06142" lon="5.72856">
        <ele>1342.709459</ele>
        <time>2022-04-11T06:58:22.941Z</time>
      </trkpt>
      <trkpt lat="46.06095" lon="5.72809">
        <ele>1343.636887</ele>
        <time>2022-04-11T06:58:52.351Z</time>
      </trkpt>
      <trkpt lat="46.06059" lon="5.72825">
        <ele>1344.168329</ele>
        <time>2022-04-11T06:59:09.938Z</time>
      </trkpt>
      <trkpt lat="46.06026" lon="5.72831">
        <ele>1342.477125</ele>
        <time>2022-04-11T06:59:24.752Z</time>
      </trkpt>
      <trkpt lat="46.05998" lon="5.72816">
        <ele>1340.987779</ele>
        <time>2022-04-11T06:59:37.472Z</time>
      </trkpt>
      <trkpt lat="46.05987" lon="5.72888">
        <ele>1338.399459</ele>
        <time>2022-04-11T06:59:58.938Z</time>
      </trkpt>
      <trkpt lat="46.05985" lon="5.72973">
        <ele>1335.403368</ele>
        <time>2022-04-11T07:00:23.187Z</time>
      </trkpt>
      <trkpt lat="46.05927" lon="5.731">
        <ele>1333.466207</ele>
        <time>2022-04-11T07:01:08.794Z</time>
      </trkpt>
      <trkpt lat="46.05913" lon="5.73117">
        <ele>1333.172132</ele>
        <time>2022-04-11T07:01:16.243Z</time>
      </trkpt>
      <trkpt lat="46.05927" lon="5.731">
        <ele>1332.878058</ele>
        <time>2022-04-11T07:01:27.242Z</time>
      </trkpt>
      <trkpt lat="46.05985" lon="5.72973">
        <ele>1334.34123</ele>
        <time>2022-04-11T07:02:29.209Z</time>
      </trkpt>
      <trkpt lat="46.05987" lon="5.72888">
        <ele>1336.4686</ele>
        <time>2022-04-11T07:03:04.453Z</time>
      </trkpt>
      <trkpt lat="46.05998" lon="5.72816">
        <ele>1338.306434</ele>
        <time>2022-04-11T07:03:31.461Z</time>
      </trkpt>
      <trkpt lat="46.05928" lon="5.72821">
        <ele>1337.586499</ele>
        <time>2022-04-11T07:04:06.259Z</time>
      </trkpt>
      <trkpt lat="46.05928" lon="5.72843">
        <ele>1337.343114</ele>
        <time>2022-04-11T07:04:12.765Z</time>
      </trkpt>
      <trkpt lat="46.05919" lon="5.72881">
        <ele>1336.892291</ele>
        <time>2022-04-11T07:04:25.711Z</time>
      </trkpt>
      <trkpt lat="46.05883" lon="5.72944">
        <ele>1335.953975</ele>
        <time>2022-04-11T07:04:50.973Z</time>
      </trkpt>
      <trkpt lat="46.05866" lon="5.72958">
        <ele>1335.635396</ele>
        <time>2022-04-11T07:05:00.743Z</time>
      </trkpt>
      <trkpt lat="46.05863" lon="5.72975">
        <ele>1335.439607</ele>
        <time>2022-04-11T07:05:05.391Z</time>
      </trkpt>
      <trkpt lat="46.05866" lon="5.72958">
        <ele>1335.243818</ele>
        <time>2022-04-11T07:05:11.683Z</time>
      </trkpt>
      <trkpt lat="46.05883" lon="5.72944">
        <ele>1334.931238</ele>
        <time>2022-04-11T07:05:19.763Z</time>
      </trkpt>
      <trkpt lat="46.05919" lon="5.72881">
        <ele>1334.01185</ele>
        <time>2022-04-11T07:05:47.103Z</time>
      </trkpt>
      <trkpt lat="46.05928" lon="5.72843">
        <ele>1333.570121</ele>
        <time>2022-04-11T07:05:59.632Z</time>
      </trkpt>
      <trkpt lat="46.05928" lon="5.72821">
        <ele>1333.331646</ele>
        <time>2022-04-11T07:06:08.797Z</time>
      </trkpt>
      <trkpt lat="46.05903" lon="5.72821">
        <ele>1332.931654</ele>
        <time>2022-04-11T07:06:19.971Z</time>
      </trkpt>
      <trkpt lat="46.05881" lon="5.72834">
        <ele>1332.430086</ele>
        <time>2022-04-11T07:06:31.577Z</time>
      </trkpt>
      <trkpt lat="46.05857" lon="5.72829">
        <ele>1331.835232</ele>
        <time>2022-04-11T07:06:43.326Z</time>
      </trkpt>
      <trkpt lat="46.05851" lon="5.72809">
        <ele>1331.449387</ele>
        <time>2022-04-11T07:06:50.028Z</time>
      </trkpt>
      <trkpt lat="46.05858" lon="5.72666">
        <ele>1328.990938</ele>
        <time>2022-04-11T07:07:34.874Z</time>
      </trkpt>
      <trkpt lat="46.05846" lon="5.72627">
        <ele>1328.224095</ele>
        <time>2022-04-11T07:07:48.314Z</time>
      </trkpt>
      <trkpt lat="46.05778" lon="5.72598">
        <ele>1325.802944</ele>
        <time>2022-04-11T07:08:19.639Z</time>
      </trkpt>
      <trkpt lat="46.05734" lon="5.72533">
        <ele>1323.611167</ele>
        <time>2022-04-11T07:08:47.509Z</time>
      </trkpt>
      <trkpt lat="46.05675" lon="5.72495">
        <ele>1321.639188</ele>
        <time>2022-04-11T07:09:16.311Z</time>
      </trkpt>
      <trkpt lat="46.05611" lon="5.72438">
        <ele>1319.907534</ele>
        <time>2022-04-11T07:09:50.800Z</time>
      </trkpt>
      <trkpt lat="46.0557" lon="5.72352">
        <ele>1318.255035</ele>
        <time>2022-04-11T07:10:24.131Z</time>
      </trkpt>
      <trkpt lat="46.05527" lon="5.72324">
        <ele>1317.098781</ele>
        <time>2022-04-11T07:10:46.034Z</time>
      </trkpt>
      <trkpt lat="46.05437" lon="5.72347">
        <ele>1314.802688</ele>
        <time>2022-04-11T07:11:28.603Z</time>
      </trkpt>
      <trkpt lat="46.05402" lon="5.72338">
        <ele>1313.916567</ele>
        <time>2022-04-11T07:11:44.224Z</time>
      </trkpt>
      <trkpt lat="46.05364" lon="5.72441">
        <ele>1310.042908</ele>
        <time>2022-04-11T07:12:19.283Z</time>
      </trkpt>
      <trkpt lat="46.05331" lon="5.72479">
        <ele>1307.775271</ele>
        <time>2022-04-11T07:12:37.144Z</time>
      </trkpt>
      <trkpt lat="46.05317" lon="5.72531">
        <ele>1305.712918</ele>
        <time>2022-04-11T07:12:53.358Z</time>
      </trkpt>
      <trkpt lat="46.05301" lon="5.72559">
        <ele>1304.362218</ele>
        <time>2022-04-11T07:13:04.046Z</time>
      </trkpt>
      <trkpt lat="46.05286" lon="5.72562">
        <ele>1303.502739</ele>
        <time>2022-04-11T07:13:10.354Z</time>
      </trkpt>
      <trkpt lat="46.05224" lon="5.72588">
        <ele>1299.655336</ele>
        <time>2022-04-11T07:13:37.144Z</time>
      </trkpt>
      <trkpt lat="46.05122" lon="5.72544">
        <ele>1293.289105</ele>
        <time>2022-04-11T07:14:22.352Z</time>
      </trkpt>
      <trkpt lat="46.0499" lon="5.72526">
        <ele>1286.344236</ele>
        <time>2022-04-11T07:15:18.646Z</time>
      </trkpt>
      <trkpt lat="46.04948" lon="5.72527">
        <ele>1284.128998</ele>
        <time>2022-04-11T07:15:37.133Z</time>
      </trkpt>
      <trkpt lat="46.04937" lon="5.72524">
        <ele>1283.655656</ele>
        <time>2022-04-11T07:15:41.707Z</time>
      </trkpt>
      <trkpt lat="46.04881" lon="5.72471">
        <ele>1282.017738</ele>
        <time>2022-04-11T07:16:11.653Z</time>
      </trkpt>
      <trkpt lat="46.04867" lon="5.72469">
        <ele>1281.665084</ele>
        <time>2022-04-11T07:16:18.275Z</time>
      </trkpt>
      <trkpt lat="46.048" lon="5.72424">
        <ele>1279.873108</ele>
        <time>2022-04-11T07:16:52.464Z</time>
      </trkpt>
      <trkpt lat="46.04768" lon="5.72417">
        <ele>1279.090271</ele>
        <time>2022-04-11T07:17:07.725Z</time>
      </trkpt>
      <trkpt lat="46.04749" lon="5.725">
        <ele>1277.619567</ele>
        <time>2022-04-11T07:17:36.476Z</time>
      </trkpt>
      <trkpt lat="46.04746" lon="5.72567">
        <ele>1276.496168</ele>
        <time>2022-04-11T07:17:57.658Z</time>
      </trkpt>
      <trkpt lat="46.0473" lon="5.72595">
        <ele>1275.883599</ele>
        <time>2022-04-11T07:18:09.006Z</time>
      </trkpt>
      <trkpt lat="46.0471" lon="5.72648">
        <ele>1274.571176</ele>
        <time>2022-04-11T07:18:27.711Z</time>
      </trkpt>
      <trkpt lat="46.04668" lon="5.72667">
        <ele>1271.137994</ele>
        <time>2022-04-11T07:18:46.630Z</time>
      </trkpt>
      <trkpt lat="46.04604" lon="5.72668">
        <ele>1266.181875</ele>
        <time>2022-04-11T07:19:12.432Z</time>
      </trkpt>
      <trkpt lat="46.04545" lon="5.72703">
        <ele>1261.299359</ele>
        <time>2022-04-11T07:19:36.973Z</time>
      </trkpt>
      <trkpt lat="46.045" lon="5.72695">
        <ele>1257.327918</ele>
        <time>2022-04-11T07:19:54.460Z</time>
      </trkpt>
      <trkpt lat="46.04512" lon="5.72685">
        <ele>1256.120151</ele>
        <time>2022-04-11T07:19:59.988Z</time>
      </trkpt>
      <trkpt lat="46.045" lon="5.72695">
        <ele>1254.912383</ele>
        <time>2022-04-11T07:20:05.378Z</time>
      </trkpt>
      <trkpt lat="46.04475" lon="5.72692">
        <ele>1252.669438</ele>
        <time>2022-04-11T07:20:15.389Z</time>
      </trkpt>
      <trkpt lat="46.04449" lon="5.72701">
        <ele>1250.337401</ele>
        <time>2022-04-11T07:20:25.874Z</time>
      </trkpt>
      <trkpt lat="46.04423" lon="5.7272">
        <ele>1247.748698</ele>
        <time>2022-04-11T07:20:37.531Z</time>
      </trkpt>
      <trkpt lat="46.04346" lon="5.72741">
        <ele>1242.018108</ele>
        <time>2022-04-11T07:21:09.788Z</time>
      </trkpt>
      <trkpt lat="46.04324" lon="5.72711">
        <ele>1240.08251</ele>
        <time>2022-04-11T07:21:22.603Z</time>
      </trkpt>
      <trkpt lat="46.04318" lon="5.72592">
        <ele>1234.766659</ele>
        <time>2022-04-11T07:21:57.942Z</time>
      </trkpt>
      <trkpt lat="46.04324" lon="5.72564">
        <ele>1233.428479</ele>
        <time>2022-04-11T07:22:06.385Z</time>
      </trkpt>
      <trkpt lat="46.04364" lon="5.72475">
        <ele>1227.301624</ele>
        <time>2022-04-11T07:22:36.599Z</time>
      </trkpt>
      <trkpt lat="46.04382" lon="5.72448">
        <ele>1225.187235</ele>
        <time>2022-04-11T07:22:46.726Z</time>
      </trkpt>
      <trkpt lat="46.04394" lon="5.7242">
        <ele>1223.279883</ele>
        <time>2022-04-11T07:22:55.642Z</time>
      </trkpt>
      <trkpt lat="46.04384" lon="5.72364">
        <ele>1219.972958</ele>
        <time>2022-04-11T07:23:11.334Z</time>
      </trkpt>
      <trkpt lat="46.04337" lon="5.72256">
        <ele>1213.315873</ele>
        <time>2022-04-11T07:23:46.706Z</time>
      </trkpt>
      <trkpt lat="46.04321" lon="5.72242">
        <ele>1211.970235</ele>
        <time>2022-04-11T07:23:54.046Z</time>
      </trkpt>
      <trkpt lat="46.04316" lon="5.72229">
        <ele>1211.240796</ele>
        <time>2022-04-11T07:23:58.164Z</time>
      </trkpt>
      <trkpt lat="46.04306" lon="5.72182">
        <ele>1208.716412</ele>
        <time>2022-04-11T07:24:12.367Z</time>
      </trkpt>
      <trkpt lat="46.04286" lon="5.72129">
        <ele>1205.652061</ele>
        <time>2022-04-11T07:24:29.990Z</time>
      </trkpt>
      <trkpt lat="46.04283" lon="5.72114">
        <ele>1205.294006</ele>
        <time>2022-04-11T07:24:34.753Z</time>
      </trkpt>
      <trkpt lat="46.04276" lon="5.72139">
        <ele>1204.773927</ele>
        <time>2022-04-11T07:24:43.077Z</time>
      </trkpt>
      <trkpt lat="46.04248" lon="5.72169">
        <ele>1203.816911</ele>
        <time>2022-04-11T07:24:58.816Z</time>
      </trkpt>
      <trkpt lat="46.04166" lon="5.72291">
        <ele>1200.563576</ele>
        <time>2022-04-11T07:25:53.515Z</time>
      </trkpt>
      <trkpt lat="46.04151" lon="5.723">
        <ele>1200.115693</ele>
        <time>2022-04-11T07:26:00.928Z</time>
      </trkpt>
      <trkpt lat="46.04128" lon="5.72326">
        <ele>1199.303787</ele>
        <time>2022-04-11T07:26:14.247Z</time>
      </trkpt>
      <trkpt lat="46.04061" lon="5.72348">
        <ele>1197.383836</ele>
        <time>2022-04-11T07:26:45.433Z</time>
      </trkpt>
      <trkpt lat="46.03957" lon="5.72356">
        <ele>1194.473246</ele>
        <time>2022-04-11T07:27:31.923Z</time>
      </trkpt>
      <trkpt lat="46.03891" lon="5.72367">
        <ele>1192.590068</ele>
        <time>2022-04-11T07:28:01.657Z</time>
      </trkpt>
      <trkpt lat="46.03719" lon="5.72367">
        <ele>1186.762236</ele>
        <time>2022-04-11T07:29:20.476Z</time>
      </trkpt>
      <trkpt lat="46.03691" lon="5.72366">
        <ele>1185.709678</ele>
        <time>2022-04-11T07:29:32.641Z</time>
      </trkpt>
      <trkpt lat="46.03658" lon="5.72351">
        <ele>1184.431088</ele>
        <time>2022-04-11T07:29:47.200Z</time>
      </trkpt>
      <trkpt lat="46.03634" lon="5.72287">
        <ele>1181.325679</ele>
        <time>2022-04-11T07:30:08.450Z</time>
      </trkpt>
      <trkpt lat="46.03611" lon="5.7227">
        <ele>1179.397161</ele>
        <time>2022-04-11T07:30:18.848Z</time>
      </trkpt>
      <trkpt lat="46.03565" lon="5.72267">
        <ele>1175.929238</ele>
        <time>2022-04-11T07:30:37.774Z</time>
      </trkpt>
      <trkpt lat="46.03519" lon="5.72299">
        <ele>1172.059147</ele>
        <time>2022-04-11T07:30:58.068Z</time>
      </trkpt>
      <trkpt lat="46.03456" lon="5.72331">
        <ele>1168.906687</ele>
        <time>2022-04-11T07:31:25.199Z</time>
      </trkpt>
      <trkpt lat="46.0342" lon="5.72361">
        <ele>1167.612186</ele>
        <time>2022-04-11T07:31:43.108Z</time>
      </trkpt>
      <trkpt lat="46.03411" lon="5.72365">
        <ele>1167.317832</ele>
        <time>2022-04-11T07:31:47.484Z</time>
      </trkpt>
      <trkpt lat="46.03398" lon="5.72356">
        <ele>1166.843117</ele>
        <time>2022-04-11T07:31:53.873Z</time>
      </trkpt>
      <trkpt lat="46.03355" lon="5.72217">
        <ele>1164.966119</ele>
        <time>2022-04-11T07:32:46.434Z</time>
      </trkpt>
      <trkpt lat="46.03315" lon="5.72187">
        <ele>1165.487563</ele>
        <time>2022-04-11T07:33:09.616Z</time>
      </trkpt>
      <trkpt lat="46.03265" lon="5.72115">
        <ele>1166.31795</ele>
        <time>2022-04-11T07:33:45.929Z</time>
      </trkpt>
      <trkpt lat="46.03251" lon="5.7208">
        <ele>1166.647846</ele>
        <time>2022-04-11T07:34:00.004Z</time>
      </trkpt>
      <trkpt lat="46.0325" lon="5.72057">
        <ele>1166.61275</ele>
        <time>2022-04-11T07:34:07.489Z</time>
      </trkpt>
      <trkpt lat="46.03257" lon="5.72032">
        <ele>1166.519926</ele>
        <time>2022-04-11T07:34:16.635Z</time>
      </trkpt>
      <trkpt lat="46.03283" lon="5.71991">
        <ele>1166.324452</ele>
        <time>2022-04-11T07:34:35.957Z</time>
      </trkpt>
      <trkpt lat="46.03298" lon="5.71974">
        <ele>1166.230612</ele>
        <time>2022-04-11T07:34:45.267Z</time>
      </trkpt>
      <trkpt lat="46.0332" lon="5.71964">
        <ele>1166.12017</ele>
        <time>2022-04-11T07:34:56.387Z</time>
      </trkpt>
      <trkpt lat="46.03343" lon="5.7197">
        <ele>1166.001874</ele>
        <time>2022-04-11T07:35:07.150Z</time>
      </trkpt>
      <trkpt lat="46.034" lon="5.7197">
        <ele>1165.433452</ele>
        <time>2022-04-11T07:35:32.940Z</time>
      </trkpt>
      <trkpt lat="46.03462" lon="5.71992">
        <ele>1163.678532</ele>
        <time>2022-04-11T07:36:02.738Z</time>
      </trkpt>
      <trkpt lat="46.0349" lon="5.71956">
        <ele>1162.654095</ele>
        <time>2022-04-11T07:36:19.802Z</time>
      </trkpt>
      <trkpt lat="46.03521" lon="5.719">
        <ele>1161.277429</ele>
        <time>2022-04-11T07:36:42.160Z</time>
      </trkpt>
      <trkpt lat="46.03577" lon="5.71828">
        <ele>1157.871695</ele>
        <time>2022-04-11T07:37:14.367Z</time>
      </trkpt>
      <trkpt lat="46.03613" lon="5.71758">
        <ele>1154.818697</ele>
        <time>2022-04-11T07:37:40.187Z</time>
      </trkpt>
      <trkpt lat="46.0363" lon="5.71693">
        <ele>1152.379304</ele>
        <time>2022-04-11T07:38:00.934Z</time>
      </trkpt>
      <trkpt lat="46.03647" lon="5.71656">
        <ele>1150.868351</ele>
        <time>2022-04-11T07:38:14.319Z</time>
      </trkpt>
      <trkpt lat="46.03715" lon="5.71571">
        <ele>1146.542195</ele>
        <time>2022-04-11T07:38:52.808Z</time>
      </trkpt>
      <trkpt lat="46.03726" lon="5.71491">
        <ele>1143.827934</ele>
        <time>2022-04-11T07:39:17.562Z</time>
      </trkpt>
      <trkpt lat="46.03734" lon="5.71452">
        <ele>1142.227034</ele>
        <time>2022-04-11T07:39:30.068Z</time>
      </trkpt>
      <trkpt lat="46.03729" lon="5.71421">
        <ele>1140.843785</ele>
        <time>2022-04-11T07:39:39.611Z</time>
      </trkpt>
      <trkpt lat="46.03712" lon="5.71389">
        <ele>1139.063975</ele>
        <time>2022-04-11T07:39:51.825Z</time>
      </trkpt>
      <trkpt lat="46.03699" lon="5.71377">
        <ele>1138.102258</ele>
        <time>2022-04-11T07:39:58.338Z</time>
      </trkpt>
      <trkpt lat="46.03692" lon="5.71339">
        <ele>1136.353856</ele>
        <time>2022-04-11T07:40:09.926Z</time>
      </trkpt>
      <trkpt lat="46.03696" lon="5.71316">
        <ele>1135.31957</ele>
        <time>2022-04-11T07:40:16.523Z</time>
      </trkpt>
      <trkpt lat="46.03723" lon="5.71297">
        <ele>1133.422603</ele>
        <time>2022-04-11T07:40:28.565Z</time>
      </trkpt>
      <trkpt lat="46.03733" lon="5.71276">
        <ele>1132.306691</ele>
        <time>2022-04-11T07:40:35.587Z</time>
      </trkpt>
      <trkpt lat="46.03749" lon="5.71205">
        <ele>1127.438154</ele>
        <time>2022-04-11T07:40:56.340Z</time>
      </trkpt>
      <trkpt lat="46.03748" lon="5.71157">
        <ele>1124.048872</ele>
        <time>2022-04-11T07:41:09.421Z</time>
      </trkpt>
      <trkpt lat="46.03753" lon="5.71121">
        <ele>1121.444063</ele>
        <time>2022-04-11T07:41:19.259Z</time>
      </trkpt>
      <trkpt lat="46.03751" lon="5.71092">
        <ele>1119.4357</ele>
        <time>2022-04-11T07:41:26.980Z</time>
      </trkpt>
      <trkpt lat="46.03738" lon="5.71044">
        <ele>1115.859253</ele>
        <time>2022-04-11T07:41:40.469Z</time>
      </trkpt>
      <trkpt lat="46.03739" lon="5.70988">
        <ele>1111.583904</ele>
        <time>2022-04-11T07:41:55.417Z</time>
      </trkpt>
      <trkpt lat="46.03778" lon="5.70955">
        <ele>1106.133978</ele>
        <time>2022-04-11T07:42:12.863Z</time>
      </trkpt>
      <trkpt lat="46.03811" lon="5.70955">
        <ele>1102.257724</ele>
        <time>2022-04-11T07:42:25.506Z</time>
      </trkpt>
      <trkpt lat="46.03837" lon="5.70926">
        <ele>1098.320181</ele>
        <time>2022-04-11T07:42:38.039Z</time>
      </trkpt>
      <trkpt lat="46.03847" lon="5.70903">
        <ele>1096.076677</ele>
        <time>2022-04-11T07:42:45.184Z</time>
      </trkpt>
      <trkpt lat="46.03836" lon="5.7081">
        <ele>1088.410562</ele>
        <time>2022-04-11T07:43:09.939Z</time>
      </trkpt>
      <trkpt lat="46.03851" lon="5.70792">
        <ele>1086.04094</ele>
        <time>2022-04-11T07:43:17.680Z</time>
      </trkpt>
      <trkpt lat="46.0389" lon="5.70785">
        <ele>1081.544805</ele>
        <time>2022-04-11T07:43:32.330Z</time>
      </trkpt>
      <trkpt lat="46.03907" lon="5.70797">
        <ele>1079.299832</ele>
        <time>2022-04-11T07:43:39.670Z</time>
      </trkpt>
      <trkpt lat="46.03916" lon="5.70811">
        <ele>1077.77468</ele>
        <time>2022-04-11T07:43:44.697Z</time>
      </trkpt>
      <trkpt lat="46.03936" lon="5.70859">
        <ele>1073.23277</ele>
        <time>2022-04-11T07:43:59.683Z</time>
      </trkpt>
      <trkpt lat="46.03954" lon="5.70867">
        <ele>1071.171927</ele>
        <time>2022-04-11T07:44:06.680Z</time>
      </trkpt>
      <trkpt lat="46.03963" lon="5.7086">
        <ele>1070.38933</ele>
        <time>2022-04-11T07:44:10.466Z</time>
      </trkpt>
      <trkpt lat="46.03972" lon="5.70825">
        <ele>1068.3455</ele>
        <time>2022-04-11T07:44:20.509Z</time>
      </trkpt>
      <trkpt lat="46.04013" lon="5.70754">
        <ele>1063.33468</ele>
        <time>2022-04-11T07:44:46.777Z</time>
      </trkpt>
      <trkpt lat="46.04014" lon="5.70727">
        <ele>1061.869973</ele>
        <time>2022-04-11T07:44:54.561Z</time>
      </trkpt>
      <trkpt lat="46.04008" lon="5.70688">
        <ele>1059.70022</ele>
        <time>2022-04-11T07:45:05.998Z</time>
      </trkpt>
      <trkpt lat="46.0396" lon="5.70602">
        <ele>1057.18812</ele>
        <time>2022-04-11T07:45:38.015Z</time>
      </trkpt>
      <trkpt lat="46.03948" lon="5.70571">
        <ele>1057.18812</ele>
        <time>2022-04-11T07:45:48.129Z</time>
      </trkpt>
      <trkpt lat="46.03963" lon="5.70489">
        <ele>1057.18812</ele>
        <time>2022-04-11T07:46:09.075Z</time>
      </trkpt>
      <trkpt lat="46.03973" lon="5.70439">
        <ele>1057.18812</ele>
        <time>2022-04-11T07:46:22.235Z</time>
      </trkpt>
      <trkpt lat="46.03971" lon="5.70367">
        <ele>1057.18812</ele>
        <time>2022-04-11T07:46:40.853Z</time>
      </trkpt>
      <trkpt lat="46.03965" lon="5.70339">
        <ele>1041.732149</ele>
        <time>2022-04-11T04:54:15.967Z</time>
      </trkpt>
      <trkpt lat="46.04008" lon="5.70338">
        <ele>1041.732149</ele>
        <time>2022-04-11T04:54:33.270Z</time>
      </trkpt>
      <trkpt lat="46.04041" lon="5.70342">
        <ele>1041.732149</ele>
        <time>2022-04-11T04:54:47.171Z</time>
      </trkpt>
      <trkpt lat="46.04082" lon="5.70371">
        <ele>1042.412074</ele>
        <time>2022-04-11T04:55:05.738Z</time>
      </trkpt>
      <trkpt lat="46.04112" lon="5.70377">
        <ele>1043.045754</ele>
        <time>2022-04-11T04:55:17.968Z</time>
      </trkpt>
      <trkpt lat="46.04187" lon="5.70305">
        <ele>1044.982644</ele>
        <time>2022-04-11T04:55:59.519Z</time>
      </trkpt>
      <trkpt lat="46.04214" lon="5.70288">
        <ele>1045.675313</ele>
        <time>2022-04-11T04:56:13.470Z</time>
      </trkpt>
      <trkpt lat="46.0423" lon="5.70324">
        <ele>1047.621005</ele>
        <time>2022-04-11T04:56:27.896Z</time>
      </trkpt>
      <trkpt lat="46.04247" lon="5.70381">
        <ele>1050.435768</ele>
        <time>2022-04-11T04:56:50.313Z</time>
      </trkpt>
      <trkpt lat="46.04269" lon="5.7042">
        <ele>1052.743982</ele>
        <time>2022-04-11T04:57:09.152Z</time>
      </trkpt>
      <trkpt lat="46.0427" lon="5.70421">
        <ele>1052.815457</ele>
        <time>2022-04-11T04:57:10.101Z</time>
      </trkpt>
      <trkpt lat="46.04284" lon="5.70467">
        <ele>1055.122065</ele>
        <time>2022-04-11T04:57:29.918Z</time>
      </trkpt>
      <trkpt lat="46.04336" lon="5.7048">
        <ele>1059.140872</ele>
        <time>2022-04-11T04:58:03.254Z</time>
      </trkpt>
      <trkpt lat="46.04423" lon="5.70446">
        <ele>1067.740556</ele>
        <time>2022-04-11T04:58:58.599Z</time>
      </trkpt>
      <trkpt lat="46.04454" lon="5.70442">
        <ele>1070.77934</ele>
        <time>2022-04-11T04:59:18.297Z</time>
      </trkpt>
      <trkpt lat="46.04485" lon="5.70489">
        <ele>1075.184609</ele>
        <time>2022-04-11T04:59:48.263Z</time>
      </trkpt>
      <trkpt lat="46.0451" lon="5.705">
        <ele>1078.465568</ele>
        <time>2022-04-11T05:00:06.953Z</time>
      </trkpt>
      <trkpt lat="46.04561" lon="5.70559">
        <ele>1086.590184</ele>
        <time>2022-04-11T05:00:55.304Z</time>
      </trkpt>
      <trkpt lat="46.04621" lon="5.70572">
        <ele>1094.15462</ele>
        <time>2022-04-11T05:01:41.307Z</time>
      </trkpt>
      <trkpt lat="46.04701" lon="5.70638">
        <ele>1104.781274</ele>
        <time>2022-04-11T05:02:48.249Z</time>
      </trkpt>
      <trkpt lat="46.0472" lon="5.70663">
        <ele>1107.649898</ele>
        <time>2022-04-11T05:03:06.718Z</time>
      </trkpt>
      <trkpt lat="46.04728" lon="5.70701">
        <ele>1110.75825</ele>
        <time>2022-04-11T05:03:26.253Z</time>
      </trkpt>
      <trkpt lat="46.04738" lon="5.7072">
        <ele>1112.599028</ele>
        <time>2022-04-11T05:03:36.932Z</time>
      </trkpt>
      <trkpt lat="46.04777" lon="5.70771">
        <ele>1118.210764</ele>
        <time>2022-04-11T05:04:10.120Z</time>
      </trkpt>
      <trkpt lat="46.04819" lon="5.7078">
        <ele>1121.876085</ele>
        <time>2022-04-11T05:04:35.958Z</time>
      </trkpt>
      <trkpt lat="46.0485" lon="5.70829">
        <ele>1125.777819</ele>
        <time>2022-04-11T05:05:02.392Z</time>
      </trkpt>
      <trkpt lat="46.04861" lon="5.70836">
        <ele>1126.794793</ele>
        <time>2022-04-11T05:05:09.483Z</time>
      </trkpt>
      <trkpt lat="46.04879" lon="5.70839">
        <ele>1128.323665</ele>
        <time>2022-04-11T05:05:19.615Z</time>
      </trkpt>
      <trkpt lat="46.04911" lon="5.70829">
        <ele>1131.161166</ele>
        <time>2022-04-11T05:05:39.389Z</time>
      </trkpt>
      <trkpt lat="46.0493" lon="5.70819">
        <ele>1132.847533</ele>
        <time>2022-04-11T05:05:51.231Z</time>
      </trkpt>
      <trkpt lat="46.04954" lon="5.70821">
        <ele>1135.216697</ele>
        <time>2022-04-11T05:06:05.632Z</time>
      </trkpt>
      <trkpt lat="46.05109" lon="5.70917">
        <ele>1151.820558</ele>
        <time>2022-04-11T05:07:56.174Z</time>
      </trkpt>
      <trkpt lat="46.05152" lon="5.70946">
        <ele>1156.579116</ele>
        <time>2022-04-11T05:08:35.174Z</time>
      </trkpt>
      <trkpt lat="46.05172" lon="5.70971">
        <ele>1159.215268</ele>
        <time>2022-04-11T05:08:56.373Z</time>
      </trkpt>
      <trkpt lat="46.0524" lon="5.71171">
        <ele>1173.039225</ele>
        <time>2022-04-11T05:10:50.916Z</time>
      </trkpt>
      <trkpt lat="46.05255" lon="5.71195">
        <ele>1174.665784</ele>
        <time>2022-04-11T05:11:05.384Z</time>
      </trkpt>
      <trkpt lat="46.05251" lon="5.71225">
        <ele>1176.26632</ele>
        <time>2022-04-11T05:11:19.962Z</time>
      </trkpt>
      <trkpt lat="46.05254" lon="5.71246">
        <ele>1177.363509</ele>
        <time>2022-04-11T05:11:29.969Z</time>
      </trkpt>
      <trkpt lat="46.0528" lon="5.71286">
        <ele>1180.203835</ele>
        <time>2022-04-11T05:11:53.666Z</time>
      </trkpt>
      <trkpt lat="46.05304" lon="5.71345">
        <ele>1183.450923</ele>
        <time>2022-04-11T05:12:21.034Z</time>
      </trkpt>
      <trkpt lat="46.05341" lon="5.71366">
        <ele>1186.01447</ele>
        <time>2022-04-11T05:12:44.314Z</time>
      </trkpt>
      <trkpt lat="46.05349" lon="5.71376">
        <ele>1186.701234</ele>
        <time>2022-04-11T05:12:51.628Z</time>
      </trkpt>
      <trkpt lat="46.05389" lon="5.71343">
        <ele>1189.654576</ele>
        <time>2022-04-11T05:13:19.131Z</time>
      </trkpt>
      <trkpt lat="46.05405" lon="5.71342">
        <ele>1190.699223</ele>
        <time>2022-04-11T05:13:29.039Z</time>
      </trkpt>
      <trkpt lat="46.05431" lon="5.7136">
        <ele>1192.556332</ele>
        <time>2022-04-11T05:13:49.304Z</time>
      </trkpt>
      <trkpt lat="46.05451" lon="5.71389">
        <ele>1195.332035</ele>
        <time>2022-04-11T05:14:11.567Z</time>
      </trkpt>
      <trkpt lat="46.05469" lon="5.7145">
        <ele>1200.624935</ele>
        <time>2022-04-11T05:14:47.120Z</time>
      </trkpt>
      <trkpt lat="46.05489" lon="5.71536">
        <ele>1207.88354</ele>
        <time>2022-04-11T05:15:41.255Z</time>
      </trkpt>
      <trkpt lat="46.05489" lon="5.71569">
        <ele>1210.576032</ele>
        <time>2022-04-11T05:16:02.729Z</time>
      </trkpt>
      <trkpt lat="46.05493" lon="5.71668">
        <ele>1218.00693</ele>
        <time>2022-04-11T05:17:02.199Z</time>
      </trkpt>
      <trkpt lat="46.05496" lon="5.71683">
        <ele>1219.08565</ele>
        <time>2022-04-11T05:17:10.028Z</time>
      </trkpt>
      <trkpt lat="46.05507" lon="5.71687">
        <ele>1220.236026</ele>
        <time>2022-04-11T05:17:20.224Z</time>
      </trkpt>
      <trkpt lat="46.05522" lon="5.71689">
        <ele>1221.709217</ele>
        <time>2022-04-11T05:17:32.661Z</time>
      </trkpt>
      <trkpt lat="46.05536" lon="5.71747">
        <ele>1226.0411</ele>
        <time>2022-04-11T05:18:06.042Z</time>
      </trkpt>
      <trkpt lat="46.05548" lon="5.71863">
        <ele>1233.29418</ele>
        <time>2022-04-11T05:19:01.351Z</time>
      </trkpt>
      <trkpt lat="46.05563" lon="5.71906">
        <ele>1234.906741</ele>
        <time>2022-04-11T05:19:22.106Z</time>
      </trkpt>
      <trkpt lat="46.05582" lon="5.71927">
        <ele>1236.055111</ele>
        <time>2022-04-11T05:19:35.784Z</time>
      </trkpt>
      <trkpt lat="46.0561" lon="5.7194">
        <ele>1237.467522</ele>
        <time>2022-04-11T05:19:52.415Z</time>
      </trkpt>
      <trkpt lat="46.05643" lon="5.71931">
        <ele>1239.041201</ele>
        <time>2022-04-11T05:20:10.853Z</time>
      </trkpt>
      <trkpt lat="46.05729" lon="5.71998">
        <ele>1243.202967</ele>
        <time>2022-04-11T05:21:05.303Z</time>
      </trkpt>
      <trkpt lat="46.05809" lon="5.72013">
        <ele>1246.273884</ele>
        <time>2022-04-11T05:21:38.360Z</time>
      </trkpt>
      <trkpt lat="46.05855" lon="5.72036">
        <ele>1248.211903</ele>
        <time>2022-04-11T05:21:58.309Z</time>
      </trkpt>
      <trkpt lat="46.05901" lon="5.72058">
        <ele>1250.659546</ele>
        <time>2022-04-11T05:22:18.257Z</time>
      </trkpt>
      <trkpt lat="46.05975" lon="5.72113">
        <ele>1254.867153</ele>
        <time>2022-04-11T05:22:52.558Z</time>
      </trkpt>
      <trkpt lat="46.06024" lon="5.72077">
        <ele>1257.471417</ele>
        <time>2022-04-11T05:23:15.088Z</time>
      </trkpt>
      <trkpt lat="46.06073" lon="5.72041">
        <ele>1259.599107</ele>
        <time>2022-04-11T05:23:37.609Z</time>
      </trkpt>
      <trkpt lat="46.0615" lon="5.72076">
        <ele>1262.723426</ele>
        <time>2022-04-11T05:24:10.620Z</time>
      </trkpt>
      <trkpt lat="46.06214" lon="5.72052">
        <ele>1263.680308</ele>
        <time>2022-04-11T05:24:37.615Z</time>
      </trkpt>
      <trkpt lat="46.06277" lon="5.72029">
        <ele>1263.224434</ele>
        <time>2022-04-11T05:25:04.607Z</time>
      </trkpt>
      <trkpt lat="46.06318" lon="5.71963">
        <ele>1262.795952</ele>
        <time>2022-04-11T05:25:30.008Z</time>
      </trkpt>
      <trkpt lat="46.06359" lon="5.71896">
        <ele>1260.735088</ele>
        <time>2022-04-11T05:25:55.418Z</time>
      </trkpt>
      <trkpt lat="46.0642" lon="5.71851">
        <ele>1257.787634</ele>
        <time>2022-04-11T05:26:23.197Z</time>
      </trkpt>
      <trkpt lat="46.0648" lon="5.71807">
        <ele>1254.840186</ele>
        <time>2022-04-11T05:26:50.975Z</time>
      </trkpt>
      <trkpt lat="46.0654" lon="5.71762">
        <ele>1252.031808</ele>
        <time>2022-04-11T05:27:18.758Z</time>
      </trkpt>
      <trkpt lat="46.06621" lon="5.7172">
        <ele>1248.42859</ele>
        <time>2022-04-11T05:27:54.377Z</time>
      </trkpt>
      <trkpt lat="46.06703" lon="5.71678">
        <ele>1246.962103</ele>
        <time>2022-04-11T05:28:29.974Z</time>
      </trkpt>
      <trkpt lat="46.06705" lon="5.7168">
        <ele>1246.950135</ele>
        <time>2022-04-11T05:28:30.936Z</time>
      </trkpt>
      <trkpt lat="46.06735" lon="5.71698">
        <ele>1246.731304</ele>
        <time>2022-04-11T05:28:46.948Z</time>
      </trkpt>
      <trkpt lat="46.06801" lon="5.71706">
        <ele>1246.298947</ele>
        <time>2022-04-11T05:29:19.153Z</time>
      </trkpt>
      <trkpt lat="46.0685" lon="5.71735">
        <ele>1246.192039</ele>
        <time>2022-04-11T05:29:45.566Z</time>
      </trkpt>
      <trkpt lat="46.069" lon="5.71745">
        <ele>1246.205897</ele>
        <time>2022-04-11T05:30:10.946Z</time>
      </trkpt>
      <trkpt lat="46.07011" lon="5.71779">
        <ele>1245.630694</ele>
        <time>2022-04-11T05:31:05.311Z</time>
      </trkpt>
      <trkpt lat="46.07079" lon="5.71779">
        <ele>1243.473258</ele>
        <time>2022-04-11T05:31:35.809Z</time>
      </trkpt>
      <trkpt lat="46.07099" lon="5.71787">
        <ele>1242.799028</ele>
        <time>2022-04-11T05:31:45.149Z</time>
      </trkpt>
      <trkpt lat="46.07144" lon="5.71824">
        <ele>1241.168393</ele>
        <time>2022-04-11T05:32:07.637Z</time>
      </trkpt>
      <trkpt lat="46.07212" lon="5.71826">
        <ele>1238.575193</ele>
        <time>2022-04-11T05:32:37.513Z</time>
      </trkpt>
      <trkpt lat="46.07287" lon="5.71842">
        <ele>1235.53034</ele>
        <time>2022-04-11T05:33:10.418Z</time>
      </trkpt>
      <trkpt lat="46.07405" lon="5.71815">
        <ele>1232.372912</ele>
        <time>2022-04-11T05:34:04.015Z</time>
      </trkpt>
      <trkpt lat="46.07435" lon="5.71806">
        <ele>1231.923632</ele>
        <time>2022-04-11T05:34:18.323Z</time>
      </trkpt>
      <trkpt lat="46.07472" lon="5.71808">
        <ele>1231.396318</ele>
        <time>2022-04-11T05:34:35.385Z</time>
      </trkpt>
      <trkpt lat="46.0752" lon="5.71788">
        <ele>1230.729761</ele>
        <time>2022-04-11T05:34:59.748Z</time>
      </trkpt>
      <trkpt lat="46.07602" lon="5.71793">
        <ele>1232.871585</ele>
        <time>2022-04-11T05:35:33.362Z</time>
      </trkpt>
      <trkpt lat="46.07684" lon="5.71798">
        <ele>1235.01341</ele>
        <time>2022-04-11T05:36:06.986Z</time>
      </trkpt>
      <trkpt lat="46.07765" lon="5.71803">
        <ele>1238.298685</ele>
        <time>2022-04-11T05:36:40.626Z</time>
      </trkpt>
      <trkpt lat="46.07847" lon="5.71808">
        <ele>1241.838182</ele>
        <time>2022-04-11T05:37:14.268Z</time>
      </trkpt>
      <trkpt lat="46.07929" lon="5.71814">
        <ele>1244.183797</ele>
        <time>2022-04-11T05:37:47.894Z</time>
      </trkpt>
      <trkpt lat="46.07969" lon="5.71798">
        <ele>1244.995808</ele>
        <time>2022-04-11T05:38:06.255Z</time>
      </trkpt>
      <trkpt lat="46.08001" lon="5.71799">
        <ele>1245.642657</ele>
        <time>2022-04-11T05:38:20.685Z</time>
      </trkpt>
      <trkpt lat="46.08173" lon="5.71755">
        <ele>1247.053255</ele>
        <time>2022-04-11T05:39:32.905Z</time>
      </trkpt>
      <trkpt lat="46.08211" lon="5.71755">
        <ele>1247.153734</ele>
        <time>2022-04-11T05:39:48.579Z</time>
      </trkpt>
      <trkpt lat="46.0831" lon="5.71773">
        <ele>1248.431269</ele>
        <time>2022-04-11T05:40:30.389Z</time>
      </trkpt>
      <trkpt lat="46.08394" lon="5.71812">
        <ele>1249.82278</ele>
        <time>2022-04-11T05:41:09.207Z</time>
      </trkpt>
      <trkpt lat="46.08506" lon="5.71892">
        <ele>1254.681338</ele>
        <time>2022-04-11T05:42:08.838Z</time>
      </trkpt>
      <trkpt lat="46.08573" lon="5.71909">
        <ele>1257.527727</ele>
        <time>2022-04-11T05:42:43.352Z</time>
      </trkpt>
      <trkpt lat="46.08592" lon="5.71925">
        <ele>1258.673923</ele>
        <time>2022-04-11T05:42:54.764Z</time>
      </trkpt>
      <trkpt lat="46.08612" lon="5.71953">
        <ele>1260.127706</ele>
        <time>2022-04-11T05:43:09.199Z</time>
      </trkpt>
      <trkpt lat="46.08634" lon="5.71964">
        <ele>1261.314551</ele>
        <time>2022-04-11T05:43:21.244Z</time>
      </trkpt>
      <trkpt lat="46.08694" lon="5.71978">
        <ele>1264.497324</ele>
        <time>2022-04-11T05:43:53.221Z</time>
      </trkpt>
      <trkpt lat="46.0873" lon="5.71971">
        <ele>1266.348192</ele>
        <time>2022-04-11T05:44:11.220Z</time>
      </trkpt>
      <trkpt lat="46.0874" lon="5.71969">
        <ele>1266.887854</ele>
        <time>2022-04-11T05:44:16.367Z</time>
      </trkpt>
      <trkpt lat="46.08756" lon="5.71977">
        <ele>1267.257972</ele>
        <time>2022-04-11T05:44:24.417Z</time>
      </trkpt>
      <trkpt lat="46.0879" lon="5.72008">
        <ele>1268.081469</ele>
        <time>2022-04-11T05:44:42.995Z</time>
      </trkpt>
      <trkpt lat="46.08855" lon="5.72065">
        <ele>1269.650952</ele>
        <time>2022-04-11T05:45:14.344Z</time>
      </trkpt>
      <trkpt lat="46.0892" lon="5.72122">
        <ele>1270.818029</ele>
        <time>2022-04-11T05:45:45.690Z</time>
      </trkpt>
      <trkpt lat="46.08986" lon="5.72179">
        <ele>1271.331758</ele>
        <time>2022-04-11T05:46:17.035Z</time>
      </trkpt>
      <trkpt lat="46.09007" lon="5.72144">
        <ele>1271.55099</ele>
        <time>2022-04-11T05:46:30.643Z</time>
      </trkpt>
      <trkpt lat="46.09047" lon="5.72134">
        <ele>1271.82146</ele>
        <time>2022-04-11T05:46:50.809Z</time>
      </trkpt>
      <trkpt lat="46.0912" lon="5.72163">
        <ele>1273.090667</ele>
        <time>2022-04-11T05:47:29.974Z</time>
      </trkpt>
      <trkpt lat="46.09159" lon="5.72165">
        <ele>1273.745035</ele>
        <time>2022-04-11T05:47:50.347Z</time>
      </trkpt>
      <trkpt lat="46.09205" lon="5.72178">
        <ele>1274.536334</ele>
        <time>2022-04-11T05:48:14.796Z</time>
      </trkpt>
      <trkpt lat="46.09218" lon="5.72175">
        <ele>1274.76212</ele>
        <time>2022-04-11T05:48:21.643Z</time>
      </trkpt>
      <trkpt lat="46.09236" lon="5.7216">
        <ele>1274.925469</ele>
        <time>2022-04-11T05:48:32.603Z</time>
      </trkpt>
      <trkpt lat="46.09263" lon="5.7212">
        <ele>1275.046041</ele>
        <time>2022-04-11T05:48:51.514Z</time>
      </trkpt>
      <trkpt lat="46.09305" lon="5.72106">
        <ele>1275.184641</ele>
        <time>2022-04-11T05:49:12.795Z</time>
      </trkpt>
      <trkpt lat="46.09351" lon="5.72063">
        <ele>1275.357639</ele>
        <time>2022-04-11T05:49:39.003Z</time>
      </trkpt>
      <trkpt lat="46.09411" lon="5.72034">
        <ele>1275.29933</ele>
        <time>2022-04-11T05:50:09.017Z</time>
      </trkpt>
      <trkpt lat="46.09499" lon="5.71968">
        <ele>1274.850011</ele>
        <time>2022-04-11T05:50:56.058Z</time>
      </trkpt>
      <trkpt lat="46.09517" lon="5.71964">
        <ele>1274.764449</ele>
        <time>2022-04-11T05:51:05.060Z</time>
      </trkpt>
      <trkpt lat="46.09631" lon="5.71997">
        <ele>1274.664883</ele>
        <time>2022-04-11T05:52:02.026Z</time>
      </trkpt>
      <trkpt lat="46.09667" lon="5.72034">
        <ele>1274.678854</ele>
        <time>2022-04-11T05:52:23.710Z</time>
      </trkpt>
      <trkpt lat="46.09724" lon="5.72035">
        <ele>1274.493875</ele>
        <time>2022-04-11T05:52:50.791Z</time>
      </trkpt>
      <trkpt lat="46.09787" lon="5.72059">
        <ele>1273.063258</ele>
        <time>2022-04-11T05:53:21.219Z</time>
      </trkpt>
      <trkpt lat="46.09898" lon="5.7207">
        <ele>1270.575956</ele>
        <time>2022-04-11T05:54:11.344Z</time>
      </trkpt>
      <trkpt lat="46.0992" lon="5.72078">
        <ele>1269.926349</ele>
        <time>2022-04-11T05:54:21.458Z</time>
      </trkpt>
      <trkpt lat="46.09964" lon="5.72106">
        <ele>1268.541463</ele>
        <time>2022-04-11T05:54:42.798Z</time>
      </trkpt>
      <trkpt lat="46.09985" lon="5.72109">
        <ele>1267.933338</ele>
        <time>2022-04-11T05:54:52.347Z</time>
      </trkpt>
      <trkpt lat="46.10106" lon="5.72098">
        <ele>1264.655893</ele>
        <time>2022-04-11T05:55:47.494Z</time>
      </trkpt>
      <trkpt lat="46.1014" lon="5.72116">
        <ele>1263.780852</ele>
        <time>2022-04-11T05:56:04.683Z</time>
      </trkpt>
      <trkpt lat="46.10228" lon="5.72144">
        <ele>1261.616564</ele>
        <time>2022-04-11T05:56:46.607Z</time>
      </trkpt>
      <trkpt lat="46.10247" lon="5.72161">
        <ele>1260.712181</ele>
        <time>2022-04-11T05:56:56.160Z</time>
      </trkpt>
      <trkpt lat="46.10269" lon="5.72212">
        <ele>1257.805155</ele>
        <time>2022-04-11T05:57:13.663Z</time>
      </trkpt>
      <trkpt lat="46.10315" lon="5.72248">
        <ele>1254.15607</ele>
        <time>2022-04-11T05:57:35.305Z</time>
      </trkpt>
      <trkpt lat="46.10335" lon="5.72277">
        <ele>1252.157581</ele>
        <time>2022-04-11T05:57:46.824Z</time>
      </trkpt>
      <trkpt lat="46.10373" lon="5.72281">
        <ele>1249.465959</ele>
        <time>2022-04-11T05:58:02.201Z</time>
      </trkpt>
      <trkpt lat="46.10417" lon="5.72243">
        <ele>1245.101038</ele>
        <time>2022-04-11T05:58:22.503Z</time>
      </trkpt>
      <trkpt lat="46.10483" lon="5.72246">
        <ele>1239.230076</ele>
        <time>2022-04-11T05:58:48.044Z</time>
      </trkpt>
      <trkpt lat="46.10538" lon="5.72268">
        <ele>1234.217916</ele>
        <time>2022-04-11T05:59:10.949Z</time>
      </trkpt>
      <trkpt lat="46.1055" lon="5.72264">
        <ele>1233.093828</ele>
        <time>2022-04-11T05:59:16.134Z</time>
      </trkpt>
      <trkpt lat="46.10596" lon="5.72187">
        <ele>1227.618718</ele>
        <time>2022-04-11T05:59:45.091Z</time>
      </trkpt>
      <trkpt lat="46.10684" lon="5.72183">
        <ele>1220.865059</ele>
        <time>2022-04-11T06:00:20.705Z</time>
      </trkpt>
      <trkpt lat="46.10782" lon="5.72236">
        <ele>1213.444174</ele>
        <time>2022-04-11T06:01:03.305Z</time>
      </trkpt>
      <trkpt lat="46.10856" lon="5.7225">
        <ele>1208.195169</ele>
        <time>2022-04-11T06:01:34.330Z</time>
      </trkpt>
      <trkpt lat="46.10921" lon="5.72274">
        <ele>1204.386327</ele>
        <time>2022-04-11T06:02:02.392Z</time>
      </trkpt>
      <trkpt lat="46.10924" lon="5.72276">
        <ele>1204.19716</ele>
        <time>2022-04-11T06:02:03.909Z</time>
      </trkpt>
      <trkpt lat="46.11054" lon="5.72349">
        <ele>1197.334283</ele>
        <time>2022-04-11T06:03:04.714Z</time>
      </trkpt>
      <trkpt lat="46.11097" lon="5.72391">
        <ele>1195.313123</ele>
        <time>2022-04-11T06:03:27.029Z</time>
      </trkpt>
      <trkpt lat="46.11138" lon="5.72415">
        <ele>1193.52862</ele>
        <time>2022-04-11T06:03:46.982Z</time>
      </trkpt>
      <trkpt lat="46.11149" lon="5.72427">
        <ele>1193.007593</ele>
        <time>2022-04-11T06:03:52.768Z</time>
      </trkpt>
      <trkpt lat="46.11364" lon="5.72822">
        <ele>1181.650267</ele>
        <time>2022-04-11T06:06:27.576Z</time>
      </trkpt>
      <trkpt lat="46.11231" lon="5.73028">
        <ele>1179.6</ele>
      </trkpt>
      <trkpt lat="46.1118" lon="5.73234">
        <ele>1172.8</ele>
      </trkpt>
      <trkpt lat="46.11136" lon="5.73442">
        <ele>1170.3</ele>
      </trkpt>
      <trkpt lat="46.11134" lon="5.73466">
        <ele>1170.1</ele>
      </trkpt>
    </trkseg>
  </trk>
</gpx>